Aviation Digital Data Service (ADDS)

Output produced by METARs form (2335 UTC 22 August 2014)
found at http://www.aviationweather.gov/adds/metars/
 
KESN 222250Z 00000KT 10SM SCT043 BKN049 OVC065 24/22 A3001